createdAt,value
2023-08-07T00:02:01.610Z,6.78
2023-08-07T00:04:28.111Z,6.00
2023-08-07T00:06:59.375Z,4.90
2023-08-07T00:09:26.278Z,4.35
2023-08-07T00:11:52.991Z,4.15
2023-08-07T00:14:19.612Z,4.18
2023-08-07T00:16:46.188Z,3.92
2023-08-07T00:19:12.664Z,3.78
2023-08-07T00:21:43.170Z,3.63
2023-08-07T00:24:09.669Z,3.05
2023-08-07T00:26:36.203Z,2.95
2023-08-07T00:29:02.725Z,3.00
2023-08-07T00:31:32.411Z,2.35
2023-08-07T00:33:59.713Z,2.33
2023-08-07T00:36:26.661Z,2.85
2023-08-07T00:38:53.247Z,4.03
2023-08-07T00:41:19.752Z,5.57
2023-08-07T00:43:46.280Z,5.88
2023-08-07T00:46:13.038Z,5.80
2023-08-07T00:48:40.144Z,5.97
2023-08-07T00:51:09.050Z,6.03
2023-08-07T00:53:39.202Z,7.63
2023-08-07T00:56:06.097Z,8.65
2023-08-07T00:58:35.583Z,9.07
2023-08-07T01:01:02.279Z,7.43
2023-08-07T01:03:28.888Z,6.63
2023-08-07T01:05:55.437Z,5.47
2023-08-07T01:08:22.044Z,4.93
2023-08-07T01:11:11.988Z,3.63
2023-08-07T01:13:48.233Z,3.30
2023-08-07T01:16:43.970Z,3.10
2023-08-07T01:19:20.710Z,3.08
2023-08-07T01:21:50.008Z,3.60
2023-08-07T01:24:16.516Z,2.95
2023-08-07T01:26:45.832Z,2.30
2023-08-07T01:29:35.953Z,2.58
2023-08-07T01:32:05.067Z,3.28
2023-08-07T01:34:32.096Z,4.53
2023-08-07T01:36:59.131Z,5.07
2023-08-07T01:39:25.955Z,5.10
2023-08-07T01:41:52.604Z,6.00
2023-08-07T01:44:19.105Z,6.38
2023-08-07T01:46:45.629Z,6.10
2023-08-07T01:49:12.160Z,4.43
2023-08-07T01:51:38.718Z,3.50
2023-08-07T01:54:05.309Z,3.20
2023-08-07T01:56:31.797Z,3.03
2023-08-07T01:58:58.236Z,3.05
2023-08-07T02:01:24.739Z,2.90
2023-08-07T02:03:51.248Z,2.92
2023-08-07T02:06:17.776Z,2.97
2023-08-07T02:08:44.294Z,3.08
2023-08-07T02:11:10.802Z,3.90
2023-08-07T02:13:37.291Z,3.80
2023-08-07T02:16:04.019Z,5.32
2023-08-07T02:18:30.542Z,7.10
2023-08-07T02:20:57.051Z,7.10
2023-08-07T02:23:23.572Z,7.25
2023-08-07T02:25:50.154Z,8.40
2023-08-07T02:28:16.688Z,8.50
2023-08-07T02:30:48.140Z,8.73
2023-08-07T02:33:15.655Z,8.88
2023-08-07T02:35:42.200Z,9.13
2023-08-07T02:38:08.679Z,8.20
2023-08-07T02:40:35.512Z,8.10
2023-08-07T02:43:05.090Z,7.30
2023-08-07T02:45:31.570Z,6.88
2023-08-07T02:47:58.098Z,7.10
2023-08-07T02:50:25.727Z,7.43
2023-08-07T02:52:52.206Z,7.13
2023-08-07T02:55:18.668Z,6.60
2023-08-07T02:57:45.481Z,6.43
2023-08-07T03:00:12.630Z,6.20
2023-08-07T03:02:39.196Z,5.72
2023-08-07T03:05:08.841Z,5.90
2023-08-07T03:07:35.405Z,4.88
2023-08-07T03:10:01.904Z,4.18
2023-08-07T03:12:28.425Z,4.18
2023-08-07T03:14:57.980Z,4.13
2023-08-07T03:17:24.518Z,4.28
2023-08-07T03:19:51.032Z,5.25
2023-08-07T03:22:17.547Z,7.03
2023-08-07T03:24:48.189Z,6.88
2023-08-07T03:27:15.102Z,6.93
2023-08-07T03:29:46.072Z,6.22
2023-08-07T03:32:13.043Z,4.50
2023-08-07T03:34:39.534Z,4.97
2023-08-07T03:37:06.225Z,4.47
2023-08-07T03:39:32.794Z,4.93
2023-08-07T03:41:59.317Z,4.30
2023-08-07T03:44:25.870Z,3.78
2023-08-07T03:46:52.739Z,3.05
2023-08-07T03:49:19.210Z,3.00
2023-08-07T03:51:45.654Z,2.92
2023-08-07T03:54:12.200Z,3.63
2023-08-07T03:56:39.187Z,3.30
2023-08-07T03:59:05.690Z,4.43
2023-08-07T04:01:32.290Z,5.05
2023-08-07T04:03:58.840Z,4.13
2023-08-07T04:06:27.970Z,6.22
2023-08-07T04:08:54.600Z,6.53
2023-08-07T04:11:21.111Z,5.15
2023-08-07T04:13:47.602Z,4.35
2023-08-07T04:16:14.264Z,4.65
2023-08-07T04:18:40.852Z,5.25
2023-08-07T04:21:07.454Z,5.20
2023-08-07T04:23:33.977Z,4.80
2023-08-07T04:26:01.099Z,4.90
2023-08-07T04:28:29.590Z,3.95
2023-08-07T04:30:56.154Z,3.88
2023-08-07T04:33:22.698Z,3.38
2023-08-07T04:35:49.652Z,3.47
2023-08-07T04:38:16.872Z,3.58
2023-08-07T04:40:49.699Z,3.17
2023-08-07T04:43:22.477Z,2.70
2023-08-07T04:45:50.144Z,2.72
2023-08-07T04:48:17.092Z,3.67
2023-08-07T04:50:43.846Z,3.63
2023-08-07T04:53:10.462Z,3.10
2023-08-07T04:55:37.241Z,2.72
2023-08-07T04:58:03.883Z,2.78
2023-08-07T05:00:30.468Z,4.20
2023-08-07T05:02:57.556Z,4.70
2023-08-07T05:05:24.816Z,5.45
2023-08-07T05:07:51.402Z,4.97
2023-08-07T05:10:18.050Z,5.78
2023-08-07T05:12:44.548Z,4.75
2023-08-07T05:15:11.136Z,5.47
2023-08-07T05:17:37.733Z,5.75
2023-08-07T05:20:05.807Z,5.72
2023-08-07T05:22:32.317Z,6.82
2023-08-07T05:24:58.876Z,5.70
2023-08-07T05:27:25.424Z,5.90
2023-08-07T05:29:51.868Z,6.95
2023-08-07T05:32:18.389Z,6.05
2023-08-07T05:34:45.180Z,5.82
2023-08-07T05:37:11.711Z,4.95
2023-08-07T05:39:38.228Z,5.13
2023-08-07T05:42:05.484Z,5.38
2023-08-07T05:44:32.417Z,4.90
2023-08-07T05:46:58.928Z,3.88
2023-08-07T05:49:26.580Z,4.22
2023-08-07T05:51:54.814Z,4.13
2023-08-07T05:54:21.810Z,5.32
2023-08-07T05:56:48.366Z,4.00
2023-08-07T05:59:14.986Z,4.00
2023-08-07T06:01:42.567Z,3.83
2023-08-07T06:04:10.144Z,4.72
2023-08-07T06:06:37.091Z,3.53
2023-08-07T06:09:04.811Z,3.78
2023-08-07T06:11:31.625Z,3.35
2023-08-07T06:13:58.136Z,2.50
2023-08-07T06:16:25.890Z,3.10
2023-08-07T06:18:52.646Z,3.40
2023-08-07T06:21:19.286Z,3.05
2023-08-07T06:23:48.571Z,3.55
2023-08-07T06:26:15.175Z,4.10
2023-08-07T06:28:42.884Z,3.78
2023-08-07T06:31:11.376Z,4.00
2023-08-07T06:33:38.185Z,3.83
2023-08-07T06:36:05.390Z,2.60
2023-08-07T06:38:35.079Z,2.50
2023-08-07T06:41:01.972Z,2.55
2023-08-07T06:43:28.530Z,15.57
2023-08-07T06:45:56.061Z,2.53
2023-08-07T06:48:22.847Z,2.85
2023-08-07T06:50:50.055Z,1.92
2023-08-07T06:53:16.658Z,1.73
2023-08-07T06:55:43.632Z,2.50
2023-08-07T06:58:10.929Z,2.50
2023-08-07T07:00:38.072Z,2.88
2023-08-07T07:03:04.908Z,2.60
2023-08-07T07:05:32.014Z,2.42
2023-08-07T07:07:59.016Z,2.10
2023-08-07T07:10:25.806Z,2.13
2023-08-07T07:12:53.313Z,1.80
2023-08-07T07:15:22.232Z,2.15
2023-08-07T07:17:48.806Z,2.10
2023-08-07T07:20:16.978Z,2.13
2023-08-07T07:22:43.541Z,2.10
2023-08-07T07:25:10.747Z,2.47
2023-08-07T07:27:37.231Z,1.90
2023-08-07T07:30:04.104Z,2.15
2023-08-07T07:32:30.707Z,2.22
2023-08-07T07:34:57.286Z,2.35
2023-08-07T07:37:26.950Z,1.92
2023-08-07T07:39:53.549Z,2.20
2023-08-07T07:42:20.336Z,2.00
2023-08-07T07:44:49.991Z,1.60
2023-08-07T07:47:16.546Z,1.73
2023-08-07T07:49:48.903Z,1.70
2023-08-07T07:52:15.757Z,1.70
2023-08-07T07:54:42.350Z,1.70
2023-08-07T07:57:08.903Z,1.70
2023-08-07T07:59:35.424Z,1.55
2023-08-07T08:02:02.860Z,1.70
2023-08-07T08:04:31.703Z,1.60
2023-08-07T08:06:58.331Z,8.98
2023-08-07T08:09:24.946Z,2.63
2023-08-07T08:11:51.534Z,2.22
2023-08-07T08:14:18.371Z,2.50
2023-08-07T08:16:44.929Z,2.25
2023-08-07T08:19:11.528Z,1.90
2023-08-07T08:21:38.111Z,2.08
2023-08-07T08:24:05.526Z,1.67
2023-08-07T08:26:32.223Z,1.60
2023-08-07T08:28:58.817Z,1.95
2023-08-07T08:31:25.680Z,1.70
2023-08-07T08:33:52.310Z,1.90
2023-08-07T08:36:19.013Z,1.88
2023-08-07T08:38:47.763Z,1.63
2023-08-07T08:41:17.234Z,1.95
2023-08-07T08:43:44.291Z,1.92
2023-08-07T08:46:12.902Z,1.52
2023-08-07T08:48:40.254Z,1.63
2023-08-07T08:51:07.399Z,1.92
2023-08-07T08:53:33.987Z,2.08
2023-08-07T08:56:01.950Z,2.13
2023-08-07T08:58:29.170Z,2.22
2023-08-07T09:00:55.872Z,2.17
2023-08-07T09:03:22.682Z,1.95
2023-08-07T09:05:50.799Z,1.75
2023-08-07T09:08:17.698Z,1.80
2023-08-07T09:10:44.627Z,1.90
2023-08-07T09:13:15.390Z,1.52
2023-08-07T09:15:42.368Z,1.85
2023-08-07T09:18:09.207Z,1.50
2023-08-07T09:20:36.828Z,1.38
2023-08-07T09:23:03.373Z,1.92
2023-08-07T09:25:34.286Z,2.08
2023-08-07T09:28:05.576Z,2.03
2023-08-07T09:30:33.091Z,2.05
2023-08-07T09:33:00.429Z,1.80
2023-08-07T09:35:27.679Z,1.80
2023-08-07T09:37:58.061Z,2.00
2023-08-07T09:40:24.994Z,2.55
2023-08-07T09:42:55.642Z,2.33
2023-08-07T09:45:26.644Z,1.90
2023-08-07T09:47:59.947Z,1.65
2023-08-07T09:50:26.748Z,2.17
2023-08-07T09:52:53.721Z,1.63
2023-08-07T09:55:20.230Z,2.20
2023-08-07T09:57:46.734Z,1.92
2023-08-07T10:00:16.615Z,2.20
2023-08-07T10:02:43.915Z,1.67
2023-08-07T10:05:14.033Z,1.70
2023-08-07T10:07:41.646Z,1.77
2023-08-07T10:10:11.760Z,2.05
2023-08-07T10:12:39.532Z,2.72
2023-08-07T10:15:06.741Z,2.13
2023-08-07T10:17:34.088Z,2.40
2023-08-07T10:20:00.861Z,2.65
2023-08-07T10:22:30.848Z,2.80
2023-08-07T10:24:58.893Z,2.15
2023-08-07T10:27:26.292Z,1.75
2023-08-07T10:29:53.658Z,1.80
2023-08-07T10:32:21.538Z,2.20
2023-08-07T10:34:48.477Z,2.08
2023-08-07T10:37:40.432Z,2.47
2023-08-07T10:40:10.945Z,1.90
2023-08-07T10:42:55.962Z,1.60
2023-08-07T10:45:23.762Z,1.90
2023-08-07T10:48:06.161Z,1.80
2023-08-07T10:50:35.524Z,1.92
2023-08-07T10:53:05.237Z,2.38
2023-08-07T10:55:46.534Z,2.17
2023-08-07T10:58:24.815Z,2.47
2023-08-07T11:01:10.833Z,2.25
2023-08-07T11:03:37.472Z,2.25
2023-08-07T11:06:04.396Z,2.00
2023-08-07T11:08:31.256Z,2.35
2023-08-07T11:10:59.317Z,2.38
2023-08-07T11:13:25.842Z,2.75
2023-08-07T11:15:52.376Z,3.08
2023-08-07T11:18:20.264Z,2.83
2023-08-07T11:20:46.944Z,3.13
2023-08-07T11:23:13.474Z,2.53
2023-08-07T11:25:39.936Z,3.08
2023-08-07T11:28:06.536Z,2.97
2023-08-07T11:30:33.023Z,3.08
2023-08-07T11:33:03.378Z,2.78
2023-08-07T11:35:30.250Z,3.45
2023-08-07T11:37:59.510Z,2.47
2023-08-07T11:40:26.125Z,2.75
2023-08-07T11:42:52.694Z,2.33
2023-08-07T11:45:20.238Z,2.22
2023-08-07T11:47:46.872Z,2.20
2023-08-07T11:50:13.512Z,2.13
2023-08-07T11:52:43.362Z,2.00
2023-08-07T11:55:10.560Z,2.67
2023-08-07T11:57:39.579Z,2.33
2023-08-07T12:00:18.962Z,2.45
2023-08-07T12:02:45.623Z,2.38
2023-08-07T12:05:12.647Z,2.50
2023-08-07T12:07:40.203Z,2.13
2023-08-07T12:10:10.944Z,2.53
2023-08-07T12:12:38.401Z,2.15
2023-08-07T12:15:08.765Z,2.45
2023-08-07T12:17:37.007Z,2.45
2023-08-07T12:20:11.154Z,5.60
2023-08-07T12:22:38.398Z,5.25
2023-08-07T12:25:05.332Z,2.10
2023-08-07T12:27:31.836Z,1.85
2023-08-07T12:29:58.388Z,1.90
2023-08-07T12:32:24.925Z,1.85
2023-08-07T12:37:21.413Z,1.90
2023-08-07T12:44:46.653Z,2.20
2023-08-07T12:47:13.187Z,2.20
2023-08-07T12:49:39.724Z,2.92
2023-08-07T12:52:06.607Z,2.00
2023-08-07T12:54:33.128Z,2.10
2023-08-07T12:56:59.746Z,1.65
2023-08-07T12:59:26.305Z,1.60
2023-08-07T13:01:54.409Z,1.60
2023-08-07T13:04:21.326Z,1.60
2023-08-07T13:06:50.546Z,1.67
2023-08-07T13:09:17.146Z,1.83
2023-08-07T13:11:43.673Z,1.50
2023-08-07T13:14:10.177Z,1.70
2023-08-07T13:16:36.723Z,2.47
2023-08-07T13:19:05.528Z,2.80
2023-08-07T13:21:32.584Z,2.60
2023-08-07T13:23:59.201Z,2.83
2023-08-07T13:26:25.724Z,2.47
2023-08-07T13:28:54.687Z,2.63
2023-08-07T13:31:21.414Z,2.50
2023-08-07T13:33:48.031Z,2.13
2023-08-07T13:36:16.770Z,1.92
2023-08-07T13:38:44.977Z,2.10
2023-08-07T13:41:13.103Z,2.10
2023-08-07T13:43:39.685Z,2.00
2023-08-07T13:46:06.372Z,2.38
2023-08-07T13:48:34.679Z,2.67
2023-08-07T13:51:05.518Z,2.35
2023-08-07T13:53:32.090Z,1.80
2023-08-07T13:56:00.618Z,1.70
2023-08-07T13:58:27.148Z,1.70
2023-08-07T14:00:53.734Z,1.70
2023-08-07T14:03:20.688Z,1.55
2023-08-07T14:05:47.547Z,1.70
2023-08-07T14:08:14.095Z,1.75
2023-08-07T14:10:43.229Z,1.90
2023-08-07T14:13:11.335Z,1.90
2023-08-07T14:15:40.295Z,1.98
2023-08-07T14:18:07.243Z,1.95
2023-08-07T14:20:39.259Z,2.85
2023-08-07T14:23:21.305Z,2.25
2023-08-07T14:25:51.780Z,2.40
2023-08-07T14:28:19.040Z,2.05
2023-08-07T14:30:45.658Z,1.92
2023-08-07T14:33:12.364Z,2.60
2023-08-07T14:35:38.881Z,2.95
2023-08-07T14:38:05.448Z,2.35
2023-08-07T14:40:32.021Z,2.08
2023-08-07T14:42:58.530Z,2.10
2023-08-07T14:45:25.152Z,1.75
2023-08-07T14:47:51.768Z,1.65
2023-08-07T14:50:18.331Z,1.80
2023-08-07T14:52:44.872Z,1.70
2023-08-07T14:55:11.351Z,1.63
2023-08-07T14:57:40.934Z,1.83
2023-08-07T15:00:09.649Z,1.73
2023-08-07T15:02:36.234Z,1.63
2023-08-07T15:05:02.774Z,2.15
2023-08-07T15:07:31.840Z,2.35
2023-08-07T15:09:58.360Z,1.80
2023-08-07T15:12:25.366Z,1.52
2023-08-07T15:14:52.204Z,2.03
2023-08-07T15:17:18.877Z,1.80
2023-08-07T15:19:47.000Z,2.08
2023-08-07T15:22:19.794Z,2.35
2023-08-07T15:24:47.283Z,2.28
2023-08-07T15:27:13.809Z,2.85
2023-08-07T15:29:45.620Z,2.55
2023-08-07T15:32:12.321Z,1.92
2023-08-07T15:34:38.849Z,1.70
2023-08-07T15:37:05.372Z,1.33
2023-08-07T15:39:32.456Z,1.38
2023-08-07T15:41:59.311Z,2.10
2023-08-07T15:44:26.505Z,2.05
2023-08-07T15:46:53.135Z,1.50
2023-08-07T15:49:19.706Z,1.48
2023-08-07T15:51:48.982Z,1.60
2023-08-07T15:54:18.687Z,1.77
2023-08-07T15:56:45.164Z,2.40
2023-08-07T15:59:11.705Z,1.98
2023-08-07T16:01:38.323Z,1.92
2023-08-07T16:04:05.969Z,1.75
2023-08-07T16:06:32.537Z,1.67
2023-08-07T16:09:02.070Z,1.85
2023-08-07T16:11:28.592Z,1.50
2023-08-07T16:13:56.516Z,1.42
2023-08-07T16:16:23.047Z,1.77
2023-08-07T16:18:49.668Z,1.38
2023-08-07T16:21:16.372Z,1.48
2023-08-07T16:23:42.878Z,1.30
2023-08-07T16:26:09.388Z,1.50
2023-08-07T16:28:35.919Z,1.67
2023-08-07T16:31:02.381Z,1.95
2023-08-07T16:33:28.885Z,1.60
2023-08-07T16:35:55.835Z,2.33
2023-08-07T16:38:22.395Z,2.95
2023-08-07T16:40:48.865Z,2.08
2023-08-07T16:43:15.419Z,1.10
2023-08-07T16:45:41.935Z,1.52
2023-08-07T16:48:08.519Z,1.42
2023-08-07T16:50:35.126Z,1.30
2023-08-07T16:53:01.662Z,1.20
2023-08-07T16:55:28.211Z,1.67
2023-08-07T16:57:54.707Z,1.70
2023-08-07T17:00:21.426Z,1.20
2023-08-07T17:02:49.278Z,1.48
2023-08-07T17:05:15.926Z,1.40
2023-08-07T17:07:42.377Z,2.08
2023-08-07T17:10:14.272Z,2.30
2023-08-07T17:12:41.971Z,2.38
2023-08-07T17:15:08.860Z,2.38
2023-08-07T17:17:41.279Z,2.40
2023-08-07T17:20:08.227Z,2.10
2023-08-07T17:22:34.781Z,1.70
2023-08-07T17:25:01.527Z,1.63
2023-08-07T17:27:28.046Z,1.50
2023-08-07T17:29:55.152Z,1.15
2023-08-07T17:32:21.814Z,1.13
2023-08-07T17:34:48.364Z,1.50
2023-08-07T17:37:15.292Z,1.40
2023-08-07T17:39:41.802Z,1.60
2023-08-07T17:42:08.572Z,1.70
2023-08-07T17:44:35.090Z,1.50
2023-08-07T17:47:01.957Z,2.45
2023-08-07T17:49:28.786Z,2.33
2023-08-07T17:51:55.330Z,1.50
2023-08-07T17:54:21.845Z,1.73
2023-08-07T17:56:48.377Z,1.88
2023-08-07T17:59:15.204Z,2.38
2023-08-07T18:01:42.196Z,2.33
2023-08-07T18:04:08.691Z,1.65
2023-08-07T18:06:35.754Z,1.70
2023-08-07T18:09:02.279Z,1.33
2023-08-07T18:11:29.357Z,1.20
2023-08-07T18:13:56.036Z,1.20
2023-08-07T18:16:24.057Z,1.35
2023-08-07T18:18:53.093Z,1.55
2023-08-07T18:21:20.185Z,2.38
2023-08-07T18:23:46.773Z,2.20
2023-08-07T18:26:13.344Z,1.80
2023-08-07T18:28:40.176Z,1.50
2023-08-07T18:31:10.325Z,1.65
2023-08-07T18:33:37.162Z,1.45
2023-08-07T18:36:04.361Z,1.77
2023-08-07T18:38:30.978Z,1.80
2023-08-07T18:40:57.595Z,1.60
2023-08-07T18:43:24.142Z,2.08
2023-08-07T18:45:50.649Z,1.63
2023-08-07T18:48:17.372Z,2.05
2023-08-07T18:50:44.136Z,1.90
2023-08-07T18:53:10.747Z,1.98
2023-08-07T18:55:40.295Z,2.00
2023-08-07T18:58:06.803Z,1.85
2023-08-07T19:00:33.363Z,1.90
2023-08-07T19:02:59.925Z,1.70
2023-08-07T19:05:26.587Z,1.77
2023-08-07T19:07:53.078Z,1.98
2023-08-07T19:10:19.618Z,1.60
2023-08-07T19:12:46.480Z,1.50
2023-08-07T19:15:14.121Z,1.50
2023-08-07T19:17:40.709Z,1.65
2023-08-07T19:20:07.893Z,1.88
2023-08-07T19:22:34.405Z,1.20
2023-08-07T19:25:00.997Z,1.60
2023-08-07T19:27:27.664Z,1.35
2023-08-07T19:29:54.786Z,1.35
2023-08-07T19:32:21.284Z,2.15
2023-08-07T19:34:47.816Z,1.80
2023-08-07T19:37:14.450Z,1.70
2023-08-07T19:39:40.948Z,1.60
2023-08-07T19:42:07.780Z,1.95
2023-08-07T19:44:34.916Z,2.20
2023-08-07T19:47:01.405Z,1.55
2023-08-07T19:49:27.889Z,1.20
2023-08-07T19:51:54.999Z,1.50
2023-08-07T19:54:21.551Z,1.30
2023-08-07T19:56:50.169Z,1.23
2023-08-07T19:59:16.652Z,1.48
2023-08-07T20:01:43.628Z,1.20
2023-08-07T20:04:11.828Z,1.90
2023-08-07T20:06:38.440Z,2.40
2023-08-07T20:09:05.302Z,2.42
2023-08-07T20:11:36.884Z,2.08
2023-08-07T20:14:03.550Z,1.70
2023-08-07T20:16:32.674Z,1.55
2023-08-07T20:19:00.077Z,1.75
2023-08-07T20:21:26.839Z,1.70
2023-08-07T20:23:53.597Z,1.40
2023-08-07T20:26:21.014Z,1.60
2023-08-07T20:28:47.625Z,1.42
2023-08-07T20:31:16.702Z,1.60
2023-08-07T20:33:46.321Z,1.55
2023-08-07T20:36:12.862Z,1.50
2023-08-07T20:38:41.105Z,1.70
2023-08-07T20:41:07.726Z,1.63
2023-08-07T20:43:34.305Z,1.63
2023-08-07T20:46:00.828Z,1.73
2023-08-07T20:48:27.405Z,1.58
2023-08-07T20:50:54.407Z,1.70
2023-08-07T20:53:21.190Z,1.50
2023-08-07T20:55:47.643Z,1.63
2023-08-07T20:58:14.276Z,1.83
2023-08-07T21:00:40.813Z,1.70
2023-08-07T21:03:07.475Z,1.88
2023-08-07T21:05:33.988Z,2.25
2023-08-07T21:08:00.522Z,1.73
2023-08-07T21:10:27.092Z,1.73
2023-08-07T21:12:53.824Z,1.55
2023-08-07T21:15:20.598Z,1.98
2023-08-07T21:17:47.363Z,1.67
2023-08-07T21:20:13.946Z,1.63
2023-08-07T21:22:40.497Z,1.52
2023-08-07T21:25:07.459Z,1.70
2023-08-07T21:27:34.017Z,1.80
2023-08-07T21:30:00.539Z,1.80
2023-08-07T21:32:27.116Z,1.70
2023-08-07T21:34:53.652Z,1.52
2023-08-07T21:37:20.159Z,1.73
2023-08-07T21:39:46.634Z,1.40
2023-08-07T21:42:13.153Z,1.90
2023-08-07T21:44:39.665Z,1.80
2023-08-07T21:47:07.028Z,1.50
2023-08-07T21:49:34.263Z,1.75
2023-08-07T21:52:01.017Z,1.75
2023-08-07T21:54:27.809Z,1.73
2023-08-07T21:56:54.288Z,2.00
2023-08-07T21:59:20.888Z,1.55
2023-08-07T22:01:48.342Z,1.88
2023-08-07T22:04:14.850Z,1.88
2023-08-07T22:06:41.617Z,1.60
2023-08-07T22:09:08.993Z,1.95
2023-08-07T22:11:35.584Z,1.60
2023-08-07T22:14:02.126Z,1.75
2023-08-07T22:16:28.854Z,1.80
2023-08-07T22:18:55.678Z,1.67
2023-08-07T22:21:22.259Z,1.65
2023-08-07T22:23:48.775Z,1.77
2023-08-07T22:26:15.699Z,1.73
2023-08-07T22:28:45.215Z,1.90
2023-08-07T22:31:11.912Z,1.50
2023-08-07T22:33:38.551Z,1.58
2023-08-07T22:36:12.245Z,1.60
2023-08-07T22:38:40.298Z,1.60
2023-08-07T22:41:07.065Z,1.60
2023-08-07T22:43:33.555Z,1.45
2023-08-07T22:46:00.142Z,1.92
2023-08-07T22:48:26.673Z,1.40
2023-08-07T22:50:54.396Z,1.55
2023-08-07T22:53:21.270Z,1.80
2023-08-07T22:55:48.463Z,1.67
2023-08-07T22:58:14.989Z,1.70
2023-08-07T23:00:44.779Z,1.55
2023-08-07T23:03:11.371Z,1.85
2023-08-07T23:05:38.370Z,1.58
2023-08-07T23:08:06.494Z,1.27
2023-08-07T23:10:32.992Z,1.60
2023-08-07T23:12:59.445Z,1.45
2023-08-07T23:15:26.024Z,1.48
2023-08-07T23:17:52.586Z,1.60
2023-08-07T23:20:19.208Z,1.42
2023-08-07T23:22:45.763Z,1.80
2023-08-07T23:25:13.967Z,1.63
2023-08-07T23:27:40.460Z,1.60
2023-08-07T23:30:07.618Z,1.52
2023-08-07T23:32:34.208Z,1.40
2023-08-07T23:35:00.742Z,1.80
2023-08-07T23:37:27.228Z,1.63
2023-08-07T23:39:53.842Z,4.03
2023-08-07T23:42:20.559Z,1.73
2023-08-07T23:44:47.072Z,1.85
2023-08-07T23:47:13.548Z,1.85
2023-08-07T23:49:40.448Z,2.03
2023-08-07T23:52:10.282Z,1.80
2023-08-07T23:54:36.826Z,1.60
2023-08-07T23:57:03.609Z,1.63
2023-08-07T23:59:30.099Z,1.90
